Time;durP1;ratioP1;P1;durP2;ratioP2;P2;SDS_P1;SDS_P2;PMS_P1;PMS_P2;Temp;Humidity;BMP_temperature;BMP_pressure;BME280_temperature;BME280_humidity;BME280_pressure;Samples;Min_cycle;Max_cycle;Signal;HPM_P1;HPM_P2
2023/12/05 00:02:12;;;;;;;9.38;5.57;;;;;;;5.27;84.77;98743.09;5026057;28;20048;-42
2023/12/05 00:04:39;;;;;;;8.13;5.57;;;;;;;5.26;83.57;98743.09;5036852;28;20041;-44
2023/12/05 00:07:06;;;;;;;7.03;4.15;;;;;;;5.26;84.75;98745.66;5050280;28;20053;-46
2023/12/05 00:09:33;;;;;;;9.05;5.75;;;;;;;5.26;83.42;98750.81;5050026;28;20045;-43
2023/12/05 00:12:00;;;;;;;8.90;2.90;;;;;;;5.26;84.35;98750.81;5055816;28;20607;-47
2023/12/05 00:14:26;;;;;;;10.75;3.20;;;;;;;5.25;83.55;98746.53;5050835;28;20598;-48
2023/12/05 00:16:53;;;;;;;9.10;4.13;;;;;;;5.24;84.21;98753.38;5040594;28;20052;-47
2023/12/05 00:19:20;;;;;;;11.65;5.68;;;;;;;5.25;83.53;98755.09;5042905;28;20368;-47
2023/12/05 00:21:47;;;;;;;10.38;4.88;;;;;;;5.26;84.29;98750.81;5044068;28;20059;-47
2023/12/05 00:24:14;;;;;;;10.32;4.93;;;;;;;5.26;84.39;98755.94;5041526;28;20114;-46
2023/12/05 00:26:41;;;;;;;8.38;4.60;;;;;;;5.26;83.44;98761.06;5039457;28;20502;-46
2023/12/05 00:29:08;;;;;;;10.00;4.78;;;;;;;5.25;84.50;98770.50;5042143;28;20128;-49
2023/12/05 00:31:34;;;;;;;9.18;4.68;;;;;;;5.25;83.91;98767.94;5040456;28;20052;-47
2023/12/05 00:34:01;;;;;;;7.70;4.47;;;;;;;5.24;84.37;98767.94;5039605;28;20045;-49
2023/12/05 00:36:28;;;;;;;8.75;5.00;;;;;;;5.25;83.80;98769.63;5039400;28;20052;-48
2023/12/05 00:38:55;;;;;;;6.82;4.53;;;;;;;5.23;84.18;98776.47;5041330;28;20468;-46
2023/12/05 00:41:24;;;;;;;9.20;4.93;;;;;;;5.24;83.66;98780.78;5039724;28;20490;-40
2023/12/05 00:43:51;;;;;;;8.50;4.40;;;;;;;5.22;84.07;98778.19;5042833;28;20520;-48
2023/12/05 00:46:18;;;;;;;6.75;3.55;;;;;;;5.21;84.56;98784.19;5051379;28;20053;-48
2023/12/05 00:48:45;;;;;;;7.68;2.60;;;;;;;5.21;83.92;98791.03;5041239;28;20741;-47
2023/12/05 00:51:12;;;;;;;7.93;3.58;;;;;;;5.20;84.48;98786.78;5042114;28;20110;-50
2023/12/05 00:53:38;;;;;;;5.93;2.97;;;;;;;5.19;83.87;98782.47;5041080;28;20560;-49
2023/12/05 00:56:10;;;;;;;6.18;4.10;;;;;;;5.19;83.49;98790.16;5047914;28;20041;-49
2023/12/05 00:58:37;;;;;;;6.28;4.15;;;;;;;5.18;84.58;98794.47;5046919;28;20056;-48
2023/12/05 01:01:04;;;;;;;7.32;4.03;;;;;;;5.15;83.51;98797.03;5048581;28;20056;-47
2023/12/05 01:03:31;;;;;;;6.57;4.05;;;;;;;5.16;83.47;98798.72;5051247;28;20056;-49
2023/12/05 01:05:57;;;;;;;4.40;3.30;;;;;;;5.17;84.07;98802.16;5046644;28;20555;-46
2023/12/05 01:08:24;;;;;;;4.57;4.18;;;;;;;5.13;84.55;98807.28;5047677;28;20053;-50
2023/12/05 01:10:51;;;;;;;4.82;1.65;;;;;;;5.13;84.21;98803.88;5036268;28;20436;-47
2023/12/05 01:13:17;;;;;;;4.82;3.17;;;;;;;5.14;83.42;98803.88;5038759;28;20056;-55
2023/12/05 01:15:44;;;;;;;3.95;2.97;;;;;;;5.13;83.61;98812.44;5036355;28;20045;-47
2023/12/05 01:18:11;;;;;;;3.90;2.90;;;;;;;5.11;84.33;98811.59;5042124;28;20076;-48
2023/12/05 01:20:38;;;;;;;3.58;2.22;;;;;;;5.10;84.15;98812.44;5052473;28;20119;-43
2023/12/05 01:23:05;;;;;;;4.28;2.80;;;;;;;5.10;83.83;98812.44;5039959;28;20120;-40
2023/12/05 01:25:32;;;;;;;7.20;3.78;;;;;;;5.12;84.30;98818.44;5039693;28;20041;-47
2023/12/05 01:27:59;;;;;;;4.45;3.10;;;;;;;5.10;84.58;98814.16;5036594;28;20048;-49
2023/12/05 01:30:26;;;;;;;5.32;3.33;;;;;;;5.12;83.84;98817.56;5045832;28;20048;-46
2023/12/05 01:32:52;;;;;;;4.75;3.28;;;;;;;5.12;84.38;98815.88;5046656;28;20178;-47
2023/12/05 01:35:19;;;;;;;4.57;3.38;;;;;;;5.12;83.63;98818.44;5045340;28;20051;-47
2023/12/05 01:37:48;;;;;;;3.60;3.03;;;;;;;5.12;83.97;98828.69;5045495;28;20057;-44
2023/12/05 01:40:14;;;;;;;4.90;2.90;;;;;;;5.11;84.64;98828.69;5038910;28;20041;-50
2023/12/05 01:42:41;;;;;;;4.50;3.60;;;;;;;5.09;84.68;98836.38;5043042;28;20056;-48
2023/12/05 01:45:09;;;;;;;5.07;3.45;;;;;;;5.10;84.13;98837.25;5043439;28;20060;-54
2023/12/05 01:47:39;;;;;;;4.90;2.90;;;;;;;5.10;83.89;98850.09;5050987;28;20080;-46
2023/12/05 01:50:13;;;;;;;3.50;2.97;;;;;;;5.08;84.69;98844.09;5038897;28;20064;-48
2023/12/05 01:52:46;;;;;;;3.80;3.50;;;;;;;5.08;84.49;98850.09;5054936;28;20053;-43
2023/12/05 01:55:14;;;;;;;5.05;2.75;;;;;;;5.07;84.46;98848.34;5068011;28;20083;-50
2023/12/05 01:57:42;;;;;;;3.30;2.75;;;;;;;5.06;85.19;98851.78;5057431;28;20044;-50
2023/12/05 02:00:11;;;;;;;4.07;2.55;;;;;;;5.03;84.02;98856.06;5065398;28;20040;-45
2023/12/05 02:02:39;;;;;;;3.10;2.80;;;;;;;5.04;83.70;98856.06;5063127;28;20048;-47
2023/12/05 02:05:07;;;;;;;3.13;2.75;;;;;;;5.07;84.90;98862.91;5062909;28;20052;-50
2023/12/05 02:07:35;;;;;;;2.65;2.45;;;;;;;5.06;84.42;98867.19;5061232;28;20416;-44
2023/12/05 02:10:04;;;;;;;3.30;2.63;;;;;;;5.06;83.84;98856.09;5071734;28;20048;-48
2023/12/05 02:12:30;;;;;;;2.38;1.25;;;;;;;5.07;83.68;98865.47;5063819;28;20647;-49
2023/12/05 02:14:57;;;;;;;3.65;2.55;;;;;;;5.05;84.89;98865.47;5066042;28;20041;-49
2023/12/05 02:17:34;;;;;;;3.38;1.60;;;;;;;5.06;84.62;98867.19;5069124;28;20599;-52
2023/12/05 02:28:03;;;;;;;2.70;1.30;;;;;;;5.07;84.77;98884.28;5042102;27;20422;-48
2023/12/05 02:30:30;;;;;;;2.42;1.10;;;;;;;5.09;84.42;98887.72;4996236;28;20054;-49
2023/12/05 02:32:57;;;;;;;2.58;1.17;;;;;;;5.09;83.99;98880.03;5002181;28;20096;-49
2023/12/05 02:35:24;;;;;;;3.33;1.30;;;;;;;5.10;84.88;98894.56;4999688;28;20598;-49
2023/12/05 02:38:05;;;;;;;2.88;1.48;;;;;;;5.11;83.75;98893.72;5003521;28;20049;-52
2023/12/05 02:43:28;;;;;;;2.90;1.80;;;;;;;5.12;84.46;98892.88;5063644;27;20397;-42
2023/12/05 02:45:56;;;;;;;3.38;2.10;;;;;;;5.13;84.66;98893.69;5029211;28;20096;-47
2023/12/05 02:48:37;;;;;;;3.80;2.30;;;;;;;5.13;83.81;98904.84;5033047;28;20057;-49
2023/12/05 02:51:04;;;;;;;3.78;2.30;;;;;;;5.17;84.05;98909.97;5023384;28;20045;-51
2023/12/05 02:53:32;;;;;;;4.78;1.92;;;;;;;5.18;83.79;98911.69;5025998;28;20053;-48
2023/12/05 02:55:59;;;;;;;3.75;2.15;;;;;;;5.18;84.92;98911.69;5031569;28;20045;-45
2023/12/05 02:58:25;;;;;;;4.28;2.28;;;;;;;5.20;84.03;98915.13;5026431;28;20069;-48
2023/12/05 03:00:52;;;;;;;4.63;2.17;;;;;;;5.21;84.88;98921.97;5028936;28;20076;-43
2023/12/05 03:03:19;;;;;;;6.13;3.15;;;;;;;5.22;84.68;98921.09;5013278;28;20041;-44
2023/12/05 03:05:45;;;;;;;4.97;3.10;;;;;;;5.22;84.15;98928.81;5027780;28;20045;-50
2023/12/05 03:08:12;;;;;;;6.68;3.13;;;;;;;5.24;83.97;98927.09;5037840;28;20056;-49
2023/12/05 03:10:39;;;;;;;6.07;3.95;;;;;;;5.23;84.42;98925.38;5048420;28;20429;-47
2023/12/05 03:13:10;;;;;;;6.32;3.33;;;;;;;5.24;84.13;98924.53;5041356;28;20049;-46
2023/12/05 03:15:36;;;;;;;4.53;2.58;;;;;;;5.26;84.46;98933.09;5043062;28;20057;-49
2023/12/05 03:18:03;;;;;;;5.53;3.35;;;;;;;5.25;83.73;98934.81;5044089;28;20045;-44
2023/12/05 03:20:30;;;;;;;4.63;2.60;;;;;;;5.24;83.87;98939.94;5045562;28;20077;-43
2023/12/05 03:22:56;;;;;;;6.82;3.33;;;;;;;5.24;84.25;98943.34;5048574;28;20069;-45
2023/12/05 03:25:23;;;;;;;5.78;2.90;;;;;;;5.24;83.99;98942.50;5049500;28;20722;-44
2023/12/05 03:27:50;;;;;;;5.30;3.22;;;;;;;5.24;84.62;98947.66;5045372;28;20079;-43
2023/12/05 03:30:17;;;;;;;6.38;2.13;;;;;;;5.23;83.34;98941.66;5049664;28;20053;-43
2023/12/05 03:32:44;;;;;;;5.32;2.40;;;;;;;5.25;84.43;98949.34;5044363;28;20049;-42
2023/12/05 03:35:11;;;;;;;5.22;3.15;;;;;;;5.24;83.37;98956.19;5052248;28;20049;-45
2023/12/05 03:37:37;;;;;;;6.18;3.20;;;;;;;5.24;83.72;98956.19;5047390;28;20049;-44
2023/12/05 03:40:05;;;;;;;6.32;3.17;;;;;;;5.25;83.57;98955.34;5047578;28;20065;-43
2023/12/05 03:42:31;;;;;;;7.90;3.88;;;;;;;5.26;84.13;98956.19;5046161;28;20061;-48
2023/12/05 03:44:58;;;;;;;6.72;3.45;;;;;;;5.27;83.62;98957.94;5044207;28;20061;-43
2023/12/05 03:47:26;;;;;;;5.85;3.85;;;;;;;5.27;83.61;98957.94;5042427;28;20049;-44
2023/12/05 03:49:52;;;;;;;6.65;4.03;;;;;;;5.27;83.36;98957.94;5047215;28;20073;-48
2023/12/05 03:52:19;;;;;;;7.78;3.55;;;;;;;5.27;83.61;98960.50;5052330;28;20048;-45
2023/12/05 03:54:46;;;;;;;7.28;4.00;;;;;;;5.26;83.46;98961.31;5031558;28;20046;-42
2023/12/05 03:57:12;;;;;;;7.82;4.05;;;;;;;5.25;83.25;98959.63;5036926;28;20053;-44
2023/12/05 03:59:39;;;;;;;7.75;4.07;;;;;;;5.24;83.18;98961.31;5038141;28;20107;-40
2023/12/05 04:02:06;;;;;;;8.15;3.42;;;;;;;5.24;84.39;98968.19;5030419;28;20045;-48
2023/12/05 04:04:32;;;;;;;8.48;3.40;;;;;;;5.25;83.70;98969.88;5032769;28;20041;-50
2023/12/05 04:06:59;;;;;;;9.10;5.25;;;;;;;5.23;84.09;98972.44;5029360;28;20419;-46
2023/12/05 04:09:26;;;;;;;9.63;3.92;;;;;;;5.23;82.88;98974.16;5034840;28;20582;-47
2023/12/05 04:11:53;;;;;;;6.43;3.65;;;;;;;5.23;84.13;98981.84;5035914;28;20120;-43
2023/12/05 04:14:20;;;;;;;7.88;3.78;;;;;;;5.23;84.38;98981.84;5031244;28;20049;-48
2023/12/05 04:16:47;;;;;;;7.85;3.50;;;;;;;5.22;84.28;98990.41;5039195;28;20053;-50
2023/12/05 04:19:13;;;;;;;9.00;3.70;;;;;;;5.22;83.66;98990.41;5032797;28;20498;-49
2023/12/05 04:21:40;;;;;;;10.15;5.47;;;;;;;5.21;84.40;98993.84;5033132;28;20386;-48
2023/12/05 04:24:07;;;;;;;7.10;3.53;;;;;;;5.22;83.57;99000.69;5028907;28;20558;-48
2023/12/05 04:26:33;;;;;;;10.98;3.45;;;;;;;5.21;83.93;99004.13;5032975;28;20573;-43
2023/12/05 04:29:00;;;;;;;7.95;3.67;;;;;;;5.22;83.21;99005.81;5034221;28;20746;-46
2023/12/05 04:31:27;;;;;;;9.60;3.92;;;;;;;5.22;84.04;99010.94;5027585;28;20053;-44
2023/12/05 04:33:54;;;;;;;9.52;4.40;;;;;;;5.21;83.89;99006.69;5032074;28;20053;-46
2023/12/05 04:36:24;;;;;;;7.68;4.25;;;;;;;5.22;82.84;99031.50;5033976;28;20049;-56
2023/12/05 04:38:51;;;;;;;8.25;3.35;;;;;;;5.21;84.41;99029.78;5033262;28;21373;-52
2023/12/05 04:41:17;;;;;;;11.05;4.60;;;;;;;5.21;82.79;99029.78;5033953;28;20050;-50
2023/12/05 04:43:44;;;;;;;10.63;4.18;;;;;;;5.21;83.06;99032.34;5035345;28;20056;-41
2023/12/05 04:46:11;;;;;;;11.40;4.20;;;;;;;5.21;82.86;99029.78;5039407;28;20045;-43
2023/12/05 04:48:37;;;;;;;5.78;3.95;;;;;;;5.19;84.40;99036.63;5037964;28;20077;-43
2023/12/05 04:51:04;;;;;;;8.98;3.67;;;;;;;5.20;82.92;99041.75;5033602;28;20045;-46
2023/12/05 04:53:31;;;;;;;9.07;4.30;;;;;;;5.20;84.06;99043.47;5027576;28;21164;-50
2023/12/05 04:55:58;;;;;;;7.10;3.95;;;;;;;5.20;83.43;99048.63;5036392;28;20059;-42
2023/12/05 04:58:24;;;;;;;6.00;3.42;;;;;;;5.19;83.79;99047.75;5036299;28;20065;-45
2023/12/05 05:00:51;;;;;;;8.57;3.45;;;;;;;5.20;83.09;99053.75;5035790;28;20064;-47
2023/12/05 05:03:22;;;;;;;;;;;;;;;5.14;83.30;99055.44;5035066;28;20123;-50
2023/12/05 05:05:48;;;;;;;7.47;3.63;;;;;;;5.18;83.67;99058.88;5034385;28;21295;-41
2023/12/05 05:08:15;;;;;;;6.65;3.55;;;;;;;5.18;82.96;99060.56;5035828;28;20045;-49
2023/12/05 05:10:42;;;;;;;8.07;3.83;;;;;;;5.19;84.07;99067.41;5037690;28;20046;-49
2023/12/05 05:13:08;;;;;;;10.88;4.15;;;;;;;5.19;83.80;99072.56;5034673;28;20133;-46
2023/12/05 05:15:35;;;;;;;6.82;3.38;;;;;;;5.18;83.20;99078.53;5034904;28;20054;-46
2023/12/05 05:18:02;;;;;;;8.48;3.53;;;;;;;5.17;83.09;99074.28;5035121;28;20128;-46
2023/12/05 05:20:28;;;;;;;9.00;3.50;;;;;;;5.18;83.97;99070.84;5028442;28;20544;-47
2023/12/05 05:22:55;;;;;;;7.70;2.88;;;;;;;5.15;83.86;99079.41;5029158;28;20038;-54
2023/12/05 05:25:22;;;;;;;6.38;3.92;;;;;;;5.14;83.11;99083.66;5034608;28;20674;-47
2023/12/05 05:27:49;;;;;;;8.98;4.25;;;;;;;5.14;83.25;99091.38;5032934;28;20049;-49
2023/12/05 05:30:16;;;;;;;11.38;3.85;;;;;;;5.16;84.01;99093.09;5026741;28;20053;-48
2023/12/05 05:32:43;;;;;;;10.32;4.00;;;;;;;5.18;84.39;99101.66;5026235;28;20041;-41
2023/12/05 05:35:10;;;;;;;7.95;4.10;;;;;;;5.17;82.64;99105.09;5037234;28;20055;-42
2023/12/05 05:37:37;;;;;;;8.02;4.03;;;;;;;5.16;82.94;99116.22;5024962;28;20060;-46
2023/12/05 05:40:06;;;;;;;8.35;3.75;;;;;;;5.17;83.34;99120.47;5034089;28;20053;-50
2023/12/05 05:42:33;;;;;;;6.32;3.00;;;;;;;5.17;84.02;99120.47;5036786;28;20057;-42
2023/12/05 05:45:00;;;;;;;5.53;2.67;;;;;;;5.16;83.14;99123.91;5028604;28;20049;-44
2023/12/05 05:47:28;;;;;;;6.90;4.03;;;;;;;5.16;83.12;99124.75;5032409;28;20051;-41
2023/12/05 05:49:56;;;;;;;12.98;3.45;;;;;;;5.16;83.07;99129.88;5030125;28;20045;-44
2023/12/05 05:52:23;;;;;;;9.85;4.38;;;;;;;5.18;84.33;99135.03;5034533;28;20045;-48
2023/12/05 05:54:50;;;;;;;9.25;4.25;;;;;;;5.19;84.03;99139.31;5035729;28;20049;-44
2023/12/05 05:57:17;;;;;;;7.22;4.13;;;;;;;5.20;82.97;99146.19;5030095;28;20190;-42
2023/12/05 05:59:44;;;;;;;9.63;3.72;;;;;;;5.21;83.88;99147.88;5032797;28;20049;-51
2023/12/05 06:02:12;;;;;;;8.20;3.72;;;;;;;5.22;82.55;99149.59;5032190;28;20565;-45
2023/12/05 06:04:40;;;;;;;12.45;4.38;;;;;;;5.21;83.33;99150.44;5033350;28;20414;-43
2023/12/05 06:07:08;;;;;;;8.20;4.72;;;;;;;5.22;83.38;99149.59;5033076;28;20449;-44
2023/12/05 06:09:35;;;;;;;8.02;3.33;;;;;;;5.22;82.91;99149.59;5018314;28;20050;-45
2023/12/05 06:12:04;;;;;;;10.02;3.63;;;;;;;5.21;82.81;99158.16;5036589;28;20330;-55
2023/12/05 06:14:31;;;;;;;7.78;3.30;;;;;;;5.20;84.15;99156.44;5028653;28;20044;-44
2023/12/05 06:16:57;;;;;;;5.57;3.38;;;;;;;5.21;83.45;99173.56;5026158;28;20053;-44
2023/12/05 06:19:24;;;;;;;9.27;2.92;;;;;;;5.18;82.85;99168.41;5031120;28;20053;-49
2023/12/05 06:21:51;;;;;;;11.10;3.50;;;;;;;5.19;82.91;99167.53;5034322;28;20045;-52
2023/12/05 06:24:17;;;;;;;9.30;5.03;;;;;;;5.18;82.96;99173.53;5025280;28;20439;-45
2023/12/05 06:26:44;;;;;;;6.15;3.00;;;;;;;5.17;82.64;99166.69;5030821;28;20081;-48
2023/12/05 06:29:11;;;;;;;10.98;4.18;;;;;;;5.18;83.38;99168.41;5026102;28;20055;-46
2023/12/05 06:31:38;;;;;;;7.57;4.10;;;;;;;5.19;82.80;99170.97;5032274;28;20056;-52
2023/12/05 06:34:06;;;;;;;7.97;3.42;;;;;;;5.19;82.68;99177.81;5033792;28;20067;-47
2023/12/05 06:36:33;;;;;;;9.57;4.00;;;;;;;5.18;82.97;99176.97;5030379;28;20057;-46
2023/12/05 06:38:59;;;;;;;11.25;3.75;;;;;;;5.17;83.51;99182.09;5037209;28;20156;-45
2023/12/05 06:41:26;;;;;;;9.60;4.05;;;;;;;5.18;83.87;99183.81;5025150;28;20132;-49
2023/12/05 06:43:52;;;;;;;9.07;3.90;;;;;;;5.16;83.54;99186.34;5031026;28;20045;-42
2023/12/05 06:46:19;;;;;;;11.88;4.93;;;;;;;5.17;83.67;99192.38;5034811;28;20707;-46
2023/12/05 06:48:48;;;;;;;7.00;3.97;;;;;;;5.18;83.60;99199.22;5030247;28;20053;-48
2023/12/05 06:51:18;;;;;;;12.73;4.68;;;;;;;5.16;82.77;99206.06;5028301;28;20045;-51
2023/12/05 06:53:46;;;;;;;8.73;4.25;;;;;;;5.16;82.96;99206.06;5026606;28;20049;-47
2023/12/05 06:56:19;;;;;;;8.07;3.47;;;;;;;5.16;83.44;99208.63;5027452;28;20514;-45
2023/12/05 06:58:46;;;;;;;10.50;3.30;;;;;;;5.14;83.55;99222.28;5030552;28;20045;-46
2023/12/05 07:01:13;;;;;;;6.82;3.20;;;;;;;5.13;83.48;99223.16;5027505;28;20061;-50
2023/12/05 07:03:40;;;;;;;11.18;3.70;;;;;;;5.13;82.74;99235.97;5025254;28;20046;-50
2023/12/05 07:06:16;;;;;;;10.13;3.60;;;;;;;5.11;82.99;99235.13;5030429;28;20045;-49
2023/12/05 07:08:43;;;;;;;13.50;5.57;;;;;;;5.12;82.86;99241.09;5034463;28;20453;-43
2023/12/05 07:11:10;;;;;;;9.63;3.97;;;;;;;5.12;83.19;99247.09;5026855;28;20049;-54
2023/12/05 07:13:36;;;;;;;8.43;4.13;;;;;;;5.11;82.84;99245.41;5021827;28;20057;-42
2023/12/05 07:16:04;;;;;;;9.90;4.55;;;;;;;5.09;83.54;99246.22;5029140;28;20422;-48
2023/12/05 07:18:30;;;;;;;11.27;3.55;;;;;;;5.09;82.75;99249.66;5026350;28;20057;-44
2023/12/05 07:20:57;;;;;;;7.28;2.78;;;;;;;5.09;83.75;99253.91;5029396;28;20042;-48
2023/12/05 07:23:24;;;;;;;12.45;4.25;;;;;;;5.06;82.91;99257.31;5026555;28;20041;-49
2023/12/05 07:25:53;;;;;;;9.00;3.60;;;;;;;5.05;83.86;99260.75;5030244;28;20050;-48
2023/12/05 07:28:20;;;;;;;7.10;2.80;;;;;;;5.04;82.91;99266.72;5034193;28;20095;-53
2023/12/05 07:30:47;;;;;;;7.60;3.20;;;;;;;5.03;83.91;99272.69;5032853;28;20042;-54
2023/12/05 07:33:13;;;;;;;7.60;3.33;;;;;;;5.01;83.87;99279.53;5036321;28;20077;-53
2023/12/05 07:35:42;;;;;;;10.73;4.45;;;;;;;4.97;83.19;99283.78;5032849;28;20069;-43
2023/12/05 07:38:08;;;;;;;10.23;3.58;;;;;;;4.96;83.34;99287.19;5038482;28;20514;-46
2023/12/05 07:40:35;;;;;;;6.53;4.15;;;;;;;4.93;83.46;99292.28;5038089;28;20399;-44
2023/12/05 07:43:02;;;;;;;8.45;3.67;;;;;;;4.95;84.02;99297.44;5035404;28;20045;-49
2023/12/05 07:45:29;;;;;;;9.35;3.70;;;;;;;4.94;84.20;99303.44;5028152;28;20053;-46
2023/12/05 07:47:56;;;;;;;7.82;3.65;;;;;;;4.94;83.56;99308.56;5026559;28;20614;-50
2023/12/05 07:50:23;;;;;;;9.77;3.17;;;;;;;4.91;83.46;99314.53;5019119;28;20141;-45
2023/12/05 07:52:51;;;;;;;6.07;3.03;;;;;;;4.92;84.26;99310.25;5019463;28;20590;-46
2023/12/05 07:55:18;;;;;;;4.95;2.78;;;;;;;4.94;83.90;99316.25;5021765;28;20058;-48
2023/12/05 07:57:47;;;;;;;10.95;3.28;;;;;;;4.91;84.14;99318.78;5020861;28;20052;-52
2023/12/05 08:00:16;;;;;;;5.72;2.80;;;;;;;4.91;83.75;99321.38;5016898;28;20511;-48
2023/12/05 08:02:43;;;;;;;3.33;1.77;;;;;;;4.87;83.60;99326.47;5020970;28;20059;-41
2023/12/05 08:05:11;;;;;;;4.07;2.22;;;;;;;4.81;84.70;99329.00;5015327;28;20042;-45
2023/12/05 08:07:39;;;;;;;8.45;3.60;;;;;;;4.88;83.70;99338.47;5020950;28;20057;-45
2023/12/05 08:10:07;;;;;;;7.47;3.00;;;;;;;4.86;83.68;99342.72;5021142;28;20049;-48
2023/12/05 08:12:34;;;;;;;6.85;2.85;;;;;;;4.91;84.66;99336.75;5017208;28;20045;-44
2023/12/05 08:15:01;;;;;;;4.95;3.00;;;;;;;4.89;84.68;99353.00;5021027;28;20124;-45
2023/12/05 08:17:28;;;;;;;5.70;2.97;;;;;;;4.93;83.68;99355.63;5014151;28;20058;-52
2023/12/05 08:19:55;;;;;;;8.68;2.60;;;;;;;4.90;84.68;99364.16;5018976;28;20073;-44
2023/12/05 08:22:22;;;;;;;6.65;2.80;;;;;;;4.93;83.77;99363.31;5014783;28;20073;-44
2023/12/05 08:24:50;;;;;;;5.47;2.88;;;;;;;4.93;84.89;99368.44;5025019;28;20525;-51
2023/12/05 08:27:17;;;;;;;3.67;1.80;;;;;;;4.94;83.99;99371.03;5021145;28;20060;-52
2023/12/05 08:29:43;;;;;;;5.60;3.10;;;;;;;4.95;83.85;99382.13;5012671;28;20050;-44
2023/12/05 08:32:11;;;;;;;11.40;3.58;;;;;;;4.97;84.50;99390.72;5016457;28;20066;-49
2023/12/05 08:34:38;;;;;;;7.13;2.00;;;;;;;4.97;83.51;99390.72;5014483;28;20566;-47
2023/12/05 08:37:05;;;;;;;5.78;3.63;;;;;;;4.96;84.04;99394.16;5018372;28;20054;-50
2023/12/05 08:39:32;;;;;;;10.45;3.03;;;;;;;4.96;84.05;99404.41;5018980;28;20077;-48
2023/12/05 08:41:59;;;;;;;7.15;2.30;;;;;;;4.96;84.29;99400.13;5018002;28;20059;-48
2023/12/05 08:44:27;;;;;;;6.18;2.38;;;;;;;4.98;84.37;99407.84;5017202;28;20133;-45
2023/12/05 08:46:53;;;;;;;6.75;3.72;;;;;;;4.99;84.74;99406.97;5025757;28;20048;-48
2023/12/05 08:49:20;;;;;;;6.57;3.58;;;;;;;5.02;83.71;99404.44;5013416;28;20694;-45
2023/12/05 08:51:47;;;;;;;5.45;3.45;;;;;;;5.00;83.50;99407.00;5014649;28;20080;-52
2023/12/05 08:54:14;;;;;;;5.78;3.58;;;;;;;5.01;85.08;99421.53;5026389;28;20398;-47
2023/12/05 08:56:40;;;;;;;6.93;3.60;;;;;;;5.05;84.46;99419.88;5019005;28;20680;-51
2023/12/05 08:59:08;;;;;;;6.95;2.97;;;;;;;5.04;84.68;99423.31;5026130;28;20045;-49
2023/12/05 09:01:35;;;;;;;4.07;2.50;;;;;;;5.04;84.75;99428.44;5028587;28;20091;-47
2023/12/05 09:04:02;;;;;;;6.15;2.72;;;;;;;5.05;84.63;99440.44;5029635;28;20051;-48
2023/12/05 09:06:29;;;;;;;6.95;3.53;;;;;;;5.06;83.93;99447.28;5033068;28;20049;-46
2023/12/05 09:08:57;;;;;;;9.63;2.70;;;;;;;5.08;83.80;99440.47;5032759;28;20124;-47
2023/12/05 09:11:24;;;;;;;5.70;2.95;;;;;;;5.10;84.47;99438.75;5035814;28;20045;-51
2023/12/05 09:13:51;;;;;;;9.65;3.33;;;;;;;5.12;84.08;99442.22;5031016;28;20049;-45
2023/12/05 09:16:18;;;;;;;6.82;2.95;;;;;;;5.14;84.50;99445.63;5025768;28;20084;-45
2023/12/05 09:18:44;;;;;;;6.07;2.97;;;;;;;5.14;84.20;99450.78;5023473;28;20053;-47
2023/12/05 09:21:11;;;;;;;7.65;3.92;;;;;;;5.14;84.00;99465.34;5029898;28;20136;-51
2023/12/05 09:23:38;;;;;;;8.70;3.75;;;;;;;5.11;83.74;99460.16;5034551;28;20044;-42
2023/12/05 09:26:05;;;;;;;7.32;2.75;;;;;;;5.14;84.03;99461.03;5028519;28;20056;-48
2023/12/05 09:28:34;;;;;;;2.05;1.42;;;;;;;5.09;84.67;99467.84;5036229;28;20136;-41
2023/12/05 09:31:00;;;;;;;4.97;2.55;;;;;;;5.14;84.82;99458.47;5021138;28;20064;-44
2023/12/05 09:33:27;;;;;;;3.78;1.58;;;;;;;5.12;84.00;99467.88;5024676;28;20134;-46
2023/12/05 09:35:54;;;;;;;4.85;2.47;;;;;;;5.13;84.72;99467.03;5026061;28;20049;-47
2023/12/05 09:38:21;;;;;;;4.55;2.30;;;;;;;5.16;84.63;99465.34;5029961;28;20045;-44
2023/12/05 09:40:51;;;;;;;4.13;1.75;;;;;;;5.18;84.52;99472.22;5028487;28;20045;-50
2023/12/05 09:43:22;;;;;;;2.53;1.88;;;;;;;5.15;84.03;99477.31;5026301;28;20085;-45
2023/12/05 09:46:00;;;;;;;4.60;2.08;;;;;;;5.19;84.75;99480.75;5026661;28;20041;-54
2023/12/05 09:48:28;;;;;;;4.32;3.10;;;;;;;5.21;84.19;99482.53;5021660;28;20048;-48
2023/12/05 09:50:56;;;;;;;3.40;2.67;;;;;;;5.22;85.07;99483.38;5029707;28;20638;-44
2023/12/05 09:53:23;;;;;;;3.63;1.88;;;;;;;5.23;84.93;99490.22;5031050;28;20073;-50
2023/12/05 09:55:50;;;;;;;5.40;2.33;;;;;;;5.23;84.83;99493.66;5027945;28;20251;-44
2023/12/05 09:58:18;;;;;;;3.20;1.55;;;;;;;5.25;83.80;99501.38;5028024;28;20053;-43
2023/12/05 10:00:45;;;;;;;5.60;2.17;;;;;;;5.26;84.02;99510.78;5023967;28;20045;-46
2023/12/05 10:03:14;;;;;;;4.82;2.40;;;;;;;5.24;84.56;99507.38;5026232;28;20122;-45
2023/12/05 10:05:42;;;;;;;4.10;1.98;;;;;;;5.26;85.06;99510.78;5023203;28;20050;-42
2023/12/05 10:08:11;;;;;;;2.08;1.70;;;;;;;5.25;84.94;99514.22;5026814;28;20124;-44
2023/12/05 10:10:41;;;;;;;2.50;1.75;;;;;;;5.22;85.28;99516.75;5029101;28;20047;-43
2023/12/05 10:13:09;;;;;;;3.63;1.58;;;;;;;5.26;83.74;99515.94;5029274;28;20061;-47
2023/12/05 10:15:36;;;;;;;4.60;2.38;;;;;;;5.28;83.87;99525.38;5027091;28;20084;-48
2023/12/05 10:18:04;;;;;;;4.97;1.63;;;;;;;5.26;83.91;99524.50;5025294;28;20152;-45
2023/12/05 10:20:31;;;;;;;3.47;1.73;;;;;;;5.27;83.82;99536.50;5027595;28;20048;-41
2023/12/05 10:22:58;;;;;;;3.13;1.40;;;;;;;5.30;84.56;99522.81;5034753;28;20044;-44
2023/12/05 10:25:25;;;;;;;4.63;1.25;;;;;;;5.27;84.96;99541.63;5030791;28;20049;-42
2023/12/05 10:28:01;;;;;;;3.70;2.05;;;;;;;5.31;84.01;99544.22;5033029;28;20074;-46
2023/12/05 10:30:33;;;;;;;2.45;1.40;;;;;;;5.29;84.35;99546.78;5020725;28;20057;-45
2023/12/05 10:33:19;;;;;;;2.13;1.17;;;;;;;5.26;83.46;99551.88;5022801;28;20482;-47
2023/12/05 10:35:46;;;;;;;3.30;2.05;;;;;;;5.34;84.54;99557.13;5036446;28;20079;-51
2023/12/05 10:38:17;;;;;;;4.53;2.20;;;;;;;5.34;85.17;99549.41;5029885;28;20568;-52
2023/12/05 10:40:57;;;;;;;3.78;1.70;;;;;;;5.32;84.18;99557.09;5029957;28;20103;-44
2023/12/05 10:43:25;;;;;;;3.13;1.50;;;;;;;5.36;84.64;99558.84;5029422;28;20069;-47
2023/12/05 10:45:54;;;;;;;2.78;1.13;;;;;;;5.38;83.78;99554.56;5026907;28;20060;-53
2023/12/05 10:48:23;;;;;;;3.08;1.58;;;;;;;5.39;83.69;99569.16;5027964;28;20550;-46
2023/12/05 10:50:52;;;;;;;3.72;1.88;;;;;;;5.40;83.60;99560.59;5024807;28;20045;-43
2023/12/05 10:53:19;;;;;;;3.05;2.05;;;;;;;5.42;84.66;99575.16;5026601;28;20524;-44
2023/12/05 10:55:46;;;;;;;4.72;1.92;;;;;;;5.43;84.67;99575.19;5029708;28;20052;-46
2023/12/05 10:58:14;;;;;;;5.15;1.30;;;;;;;5.43;83.52;99582.03;5019648;28;20049;-48
2023/12/05 11:00:41;;;;;;;3.35;2.03;;;;;;;5.44;83.33;99586.31;5032884;28;20422;-41
2023/12/05 11:03:08;;;;;;;2.88;1.40;;;;;;;5.44;84.10;99586.31;5028333;28;20049;-51
2023/12/05 11:05:35;;;;;;;4.55;1.50;;;;;;;5.46;83.91;99594.91;5029655;28;20073;-44
2023/12/05 11:08:03;;;;;;;4.68;1.40;;;;;;;5.44;84.47;99596.59;5030087;28;20049;-45
2023/12/05 11:10:30;;;;;;;3.83;1.23;;;;;;;5.42;82.99;99595.72;5032905;28;20051;-52
2023/12/05 11:13:00;;;;;;;4.20;1.50;;;;;;;5.44;83.78;99596.59;5029159;28;20045;-44
2023/12/05 11:15:34;;;;;;;3.47;1.63;;;;;;;5.44;84.06;99596.59;5044136;28;20061;-43
2023/12/05 11:18:25;;;;;;;2.90;2.00;;;;;;;5.39;83.99;99605.13;5035575;28;20045;-47
2023/12/05 11:21:03;;;;;;;4.55;1.27;;;;;;;5.36;83.59;99610.22;5023439;28;20124;-51
2023/12/05 11:29:17;;;;;;;3.88;3.35;;;;;;;5.37;82.49;99611.94;5035529;28;20413;-51
2023/12/05 11:37:13;;;;;;;5.18;2.80;;;;;;;5.39;83.10;99615.41;5017578;28;20411;-51
2023/12/05 11:39:40;;;;;;;6.47;2.78;;;;;;;5.38;83.39;99608.50;4988443;28;20050;-47
2023/12/05 11:42:09;;;;;;;5.57;3.75;;;;;;;5.39;83.28;99615.41;4993762;28;20054;-50
2023/12/05 11:44:37;;;;;;;3.08;2.80;;;;;;;5.39;84.14;99620.53;4991033;28;20049;-48
2023/12/05 11:47:27;;;;;;;4.97;3.28;;;;;;;5.35;83.85;99613.63;4984331;28;20080;-53
2023/12/05 11:49:56;;;;;;;6.53;3.42;;;;;;;5.36;83.98;99625.63;4985578;28;20195;-48
2023/12/05 11:52:39;;;;;;;5.50;3.88;;;;;;;5.35;84.80;99623.91;4986502;28;20047;-49
2023/12/05 11:55:08;;;;;;;8.45;4.25;;;;;;;5.34;84.16;99627.28;4978193;28;20093;-45
2023/12/05 11:57:35;;;;;;;7.53;4.00;;;;;;;5.39;84.53;99625.66;4990450;28;20046;-45
2023/12/05 12:00:03;;;;;;;6.80;4.88;;;;;;;5.43;84.50;99630.84;5005407;28;20185;-46
2023/12/05 12:05:09;;;;;;;8.30;3.53;;;;;;;5.45;83.97;99645.44;5054099;27;20413;-51
2023/12/05 12:07:56;;;;;;;10.63;4.00;;;;;;;5.45;83.41;99647.13;5043649;28;20127;-52
2023/12/05 12:10:26;;;;;;;5.78;2.85;;;;;;;5.47;83.30;99637.75;5043208;28;20045;-49